createdAt,value
2019-01-23T00:01:44.454Z,80.43
2019-01-23T00:06:51.582Z,80.46
2019-01-23T00:11:56.850Z,80.25
2019-01-23T00:17:02.058Z,79.80
2019-01-23T00:22:07.206Z,80.09
2019-01-23T00:27:12.332Z,79.73
2019-01-23T00:32:17.634Z,79.68
2019-01-23T00:37:23.554Z,79.67
2019-01-23T00:42:29.461Z,79.92
2019-01-23T00:47:34.594Z,80.21
2019-01-23T00:52:39.730Z,80.53
2019-01-23T00:57:44.914Z,80.66
2019-01-23T01:02:50.057Z,80.98
2019-01-23T01:07:55.374Z,81.17
2019-01-23T01:13:00.469Z,81.04
2019-01-23T01:18:05.962Z,81.20
2019-01-23T01:23:11.261Z,80.94
2019-01-23T01:28:19.578Z,81.09
2019-01-23T01:33:24.778Z,81.36
2019-01-23T01:38:29.866Z,81.47
2019-01-23T01:43:38.180Z,81.73
2019-01-23T01:48:43.732Z,81.85
2019-01-23T01:53:48.838Z,82.02
2019-01-23T01:58:53.992Z,81.88
2019-01-23T02:04:00.176Z,82.16
2019-01-23T02:09:08.630Z,82.53
2019-01-23T02:14:14.743Z,82.79
2019-01-23T02:19:19.948Z,81.59
2019-01-23T02:24:25.146Z,81.09
2019-01-23T02:29:30.268Z,81.92
2019-01-23T02:34:35.672Z,82.10
2019-01-23T02:39:40.970Z,81.80
2019-01-23T02:44:46.179Z,81.94
2019-01-23T02:49:51.591Z,81.70
2019-01-23T02:54:56.641Z,82.08
2019-01-23T03:00:01.666Z,81.89
2019-01-23T03:05:10.548Z,81.58
2019-01-23T03:10:18.059Z,81.61
2019-01-23T03:15:23.123Z,81.54
2019-01-23T03:20:30.685Z,81.31
2019-01-23T03:25:36.993Z,81.72
2019-01-23T03:30:44.117Z,82.15
2019-01-23T03:35:49.725Z,82.45
2019-01-23T03:40:57.524Z,82.29
2019-01-23T03:46:03.119Z,82.25
2019-01-23T03:51:09.007Z,82.06
2019-01-23T03:56:14.895Z,81.93
2019-01-23T04:01:20.683Z,81.93
2019-01-23T04:06:27.003Z,81.72
2019-01-23T04:11:32.813Z,81.95
2019-01-23T04:16:38.994Z,81.94
2019-01-23T04:21:55.179Z,82.22
2019-01-23T04:26:58.508Z,81.97
2019-01-23T04:32:04.947Z,82.44
2019-01-23T04:37:24.888Z,82.30
2019-01-23T04:42:45.903Z,82.50
2019-01-23T04:47:52.035Z,82.41
2019-01-23T04:53:17.339Z,82.83
2019-01-23T04:58:23.232Z,83.13
2019-01-23T05:03:44.448Z,82.92
2019-01-23T05:09:01.904Z,82.70
2019-01-23T05:14:12.282Z,82.32
2019-01-23T05:19:23.091Z,82.32
2019-01-23T05:24:30.535Z,82.41
2019-01-23T05:29:55.062Z,82.30
2019-01-23T05:35:02.995Z,82.50
2019-01-23T05:40:28.365Z,83.08
2019-01-23T05:45:33.790Z,83.04
2019-01-23T05:50:39.174Z,83.32
2019-01-23T05:55:49.338Z,83.15
2019-01-23T06:01:08.066Z,83.42
2019-01-23T06:06:29.776Z,83.52
2019-01-23T06:11:45.992Z,83.60
2019-01-23T06:16:51.699Z,83.25
2019-01-23T06:22:00.927Z,83.20
2019-01-23T06:27:19.474Z,83.55
2019-01-23T06:32:32.631Z,83.85
2019-01-23T06:37:38.139Z,83.85
2019-01-23T06:42:50.678Z,83.64
2019-01-23T06:48:02.880Z,83.72
2019-01-23T06:53:14.043Z,84.11
2019-01-23T06:58:15.715Z,84.81
2019-01-23T07:03:21.157Z,85.03
2019-01-23T07:08:28.577Z,84.73
2019-01-23T07:13:42.189Z,84.54
2019-01-23T07:18:47.492Z,84.65
2019-01-23T07:23:52.738Z,85.13
2019-01-23T07:28:58.049Z,85.09
2019-01-23T07:34:07.793Z,84.97
2019-01-23T07:39:14.587Z,84.94
2019-01-23T07:44:20.735Z,85.86
2019-01-23T07:49:25.913Z,85.62
2019-01-23T07:54:36.124Z,85.36
2019-01-23T07:59:41.392Z,84.90
2019-01-23T08:04:46.599Z,84.77
2019-01-23T08:09:51.749Z,85.04
2019-01-23T08:15:00.184Z,84.52
2019-01-23T08:20:07.445Z,83.82
2019-01-23T08:25:17.035Z,83.23
2019-01-23T08:30:25.494Z,82.62
2019-01-23T08:35:40.250Z,82.47
2019-01-23T08:40:45.534Z,81.87
2019-01-23T08:45:50.858Z,81.07
2019-01-23T08:50:56.313Z,81.29
2019-01-23T08:56:02.101Z,80.62
2019-01-23T09:01:08.001Z,80.26
2019-01-23T09:06:13.431Z,80.62
2019-01-23T09:11:18.753Z,81.52
2019-01-23T09:16:24.419Z,81.52
2019-01-23T09:21:32.475Z,80.74
2019-01-23T09:26:42.137Z,80.29
2019-01-23T09:32:47.433Z,79.95
2019-01-23T09:38:18.919Z,79.97
2019-01-23T09:43:52.474Z,79.37
2019-01-23T09:49:37.678Z,78.54
2019-01-23T09:54:54.247Z,77.88
2019-01-23T10:00:07.351Z,77.13
2019-01-23T10:05:13.736Z,78.30
2019-01-23T10:10:19.397Z,77.72
2019-01-23T10:16:13.032Z,76.46
2019-01-23T10:21:18.321Z,76.12
2019-01-23T10:26:23.634Z,76.46
2019-01-23T10:31:29.929Z,76.93
2019-01-23T10:36:37.205Z,77.47
2019-01-23T10:41:52.593Z,77.46
2019-01-23T10:46:58.996Z,77.20
2019-01-23T10:52:05.593Z,75.76
2019-01-23T10:57:11.464Z,75.25
2019-01-23T11:02:16.731Z,74.31
2019-01-23T11:07:27.113Z,73.49
2019-01-23T11:12:32.937Z,72.85
2019-01-23T11:17:38.238Z,73.09
2019-01-23T11:22:52.459Z,70.23
2019-01-23T11:27:59.596Z,69.39
2019-01-23T11:33:05.021Z,66.62
2019-01-23T11:38:10.712Z,64.12
2019-01-23T11:43:15.804Z,60.75
2019-01-23T11:48:20.921Z,56.75
2019-01-23T11:53:28.649Z,56.40
2019-01-23T11:58:35.452Z,57.19
2019-01-23T12:03:40.691Z,58.02
2019-01-23T12:08:46.297Z,59.90
2019-01-23T12:13:51.381Z,57.74
2019-01-23T12:18:56.382Z,61.31
2019-01-23T12:24:03.141Z,61.78
2019-01-23T12:29:08.196Z,61.92
2019-01-23T12:34:13.292Z,62.70
2019-01-23T12:39:22.249Z,67.15
2019-01-23T12:44:27.505Z,68.92
2019-01-23T12:49:36.896Z,68.46
2019-01-23T12:54:42.569Z,66.02
2019-01-23T12:59:48.395Z,68.89
2019-01-23T13:04:53.611Z,70.01
2019-01-23T13:10:00.999Z,69.86
2019-01-23T13:15:10.967Z,67.89
2019-01-23T13:20:21.707Z,69.58
2019-01-23T13:25:28.922Z,69.89
2019-01-23T13:30:35.413Z,69.44
2019-01-23T13:35:43.387Z,68.15
2019-01-23T13:40:48.657Z,70.71
2019-01-23T13:45:58.285Z,71.06
2019-01-23T13:51:04.577Z,72.93
2019-01-23T13:56:11.019Z,73.17
2019-01-23T14:01:19.707Z,73.49
2019-01-23T14:06:25.119Z,73.21
2019-01-23T14:11:41.846Z,74.41
2019-01-23T14:16:48.533Z,77.14
2019-01-23T14:21:59.540Z,76.70
2019-01-23T14:27:16.899Z,74.07
2019-01-23T14:32:22.099Z,76.58
2019-01-23T14:37:29.305Z,77.80
2019-01-23T14:42:39.799Z,79.09
2019-01-23T14:47:49.625Z,78.18
2019-01-23T14:52:55.635Z,78.91
2019-01-23T14:58:04.788Z,78.29
2019-01-23T15:03:24.081Z,80.76
2019-01-23T15:08:29.553Z,80.15
2019-01-23T15:13:40.080Z,80.28
2019-01-23T15:18:53.470Z,80.59
2019-01-23T15:24:18.019Z,79.71
2019-01-23T15:29:37.955Z,80.54
2019-01-23T15:34:47.291Z,80.43
2019-01-23T15:39:55.452Z,80.96
2019-01-23T15:45:01.318Z,81.71
2019-01-23T15:50:33.445Z,83.30
2019-01-23T15:56:09.097Z,84.69
2019-01-23T16:01:25.315Z,84.59
2019-01-23T16:06:32.625Z,84.80
2019-01-23T16:11:58.829Z,85.12
2019-01-23T16:17:23.536Z,85.08
2019-01-23T16:22:28.983Z,85.17
2019-01-23T16:27:35.782Z,85.41
2019-01-23T16:32:45.593Z,85.63
2019-01-23T16:38:11.584Z,86.66
2019-01-23T16:43:44.299Z,86.43
2019-01-23T16:48:56.357Z,87.08
2019-01-23T16:54:06.203Z,86.07
2019-01-23T16:59:15.954Z,85.58
2019-01-23T17:04:21.600Z,84.89
2019-01-23T17:09:28.402Z,84.94
2019-01-23T17:14:37.121Z,84.55
2019-01-23T17:19:53.652Z,84.07
2019-01-23T17:25:07.731Z,83.73
2019-01-23T17:30:27.358Z,83.11
2019-01-23T17:35:49.906Z,83.79
2019-01-23T17:41:01.426Z,83.13
2019-01-23T17:46:11.209Z,84.63
2019-01-23T17:51:22.582Z,83.69
2019-01-23T17:56:31.306Z,83.53
2019-01-23T18:01:36.905Z,84.37
2019-01-23T18:07:06.798Z,84.18
2019-01-23T18:12:15.025Z,83.86
2019-01-23T18:17:23.123Z,84.36
2019-01-23T18:22:32.236Z,84.21
2019-01-23T18:27:38.207Z,84.70
2019-01-23T18:32:44.566Z,84.45
2019-01-23T18:38:35.583Z,84.11
2019-01-23T18:44:39.793Z,84.11
2019-01-23T18:50:37.276Z,84.85
2019-01-23T18:56:01.425Z,84.36
2019-01-23T19:01:09.341Z,84.67
2019-01-23T19:06:26.229Z,84.44
2019-01-23T19:17:11.987Z,84.19
2019-01-23T19:22:21.945Z,82.89
2019-01-23T19:27:28.431Z,83.49
2019-01-23T19:32:49.425Z,83.04
2019-01-23T19:38:02.413Z,82.83
2019-01-23T19:43:08.339Z,83.51
2019-01-23T19:48:14.052Z,83.96
2019-01-23T19:53:19.503Z,83.16
2019-01-23T19:58:24.798Z,83.51
2019-01-23T20:03:30.014Z,82.79
2019-01-23T20:08:52.347Z,83.80
2019-01-23T20:14:16.139Z,83.55
2019-01-23T20:19:21.547Z,83.01
2019-01-23T20:24:28.061Z,83.09
2019-01-23T20:29:34.495Z,83.38
2019-01-23T20:34:43.081Z,83.42
2019-01-23T20:39:53.869Z,83.27
2019-01-23T20:44:59.097Z,83.04
2019-01-23T20:50:06.269Z,83.37
2019-01-23T20:55:11.396Z,84.27
2019-01-23T21:01:05.988Z,83.69
2019-01-23T21:12:39.651Z,83.60
2019-01-23T21:17:54.747Z,84.10
2019-01-23T21:23:07.356Z,84.05
2019-01-23T21:28:35.202Z,83.46
2019-01-23T21:34:07.927Z,83.40
2019-01-23T21:39:52.627Z,83.57
2019-01-23T21:45:02.441Z,84.34
2019-01-23T21:50:10.209Z,83.10
2019-01-23T21:55:21.479Z,83.69
2019-01-23T22:00:58.940Z,83.01
2019-01-23T22:06:04.723Z,84.30
2019-01-23T22:11:09.835Z,83.46
2019-01-23T22:16:17.702Z,83.75
2019-01-23T22:21:22.828Z,83.32
2019-01-23T22:26:29.384Z,83.17
2019-01-23T22:31:35.664Z,83.01
2019-01-23T22:36:40.736Z,82.45
2019-01-23T22:41:48.994Z,82.80
2019-01-23T22:46:54.095Z,83.02
2019-01-23T22:51:59.290Z,83.44
2019-01-23T22:57:04.352Z,83.57
2019-01-23T23:02:09.483Z,83.90
2019-01-23T23:07:14.548Z,83.68
2019-01-23T23:12:19.764Z,84.17
2019-01-23T23:17:24.816Z,83.66
2019-01-23T23:22:29.911Z,84.50
2019-01-23T23:27:39.354Z,84.37
2019-01-23T23:32:41.764Z,84.90
2019-01-23T23:37:46.935Z,84.62
2019-01-23T23:42:52.105Z,85.29
2019-01-23T23:47:57.384Z,84.81
2019-01-23T23:53:02.398Z,84.30
2019-01-23T23:58:08.593Z,85.30
